Time;durP1;ratioP1;P1;durP2;ratioP2;P2;SDS_P1;SDS_P2;PMS_P1;PMS_P2;Temp;Humidity;BMP_temperature;BMP_pressure;BME280_temperature;BME280_humidity;BME280_pressure;Samples;Min_cycle;Max_cycle;Signal;HPM_P1;HPM_P2
2023/12/25 00:02:08;;;;;;;14.38;7.55;;;;;;;4.88;100.00;100291.25;5012313;28;20030;-77
2023/12/25 00:04:33;;;;;;;14.23;7.95;;;;;;;4.68;100.00;100278.19;5028127;28;20044;-76
2023/12/25 00:06:59;;;;;;;14.75;8.20;;;;;;;4.93;100.00;100319.66;5028923;28;20029;-77
2023/12/25 00:09:24;;;;;;;13.63;7.75;;;;;;;4.59;100.00;100256.34;5012129;28;20080;-76
2023/12/25 00:11:50;;;;;;;14.75;7.43;;;;;;;4.98;100.00;100331.91;5012413;28;20136;-76
2023/12/25 00:14:15;;;;;;;15.75;8.15;;;;;;;4.61;100.00;100245.41;5012547;28;20080;-76
2023/12/25 00:16:41;;;;;;;14.07;7.55;;;;;;;5.07;100.00;100323.88;5029144;28;20124;-77
2023/12/25 00:19:09;;;;;;;10.73;6.57;;;;;;;5.08;100.00;100319.63;5029377;28;20030;-77
2023/12/25 00:21:36;;;;;;;9.75;5.78;;;;;;;4.43;100.00;100188.13;5021427;28;20052;-76
2023/12/25 00:24:02;;;;;;;11.50;5.97;;;;;;;4.88;100.00;100244.34;5026646;28;20416;-76
2023/12/25 00:26:27;;;;;;;13.10;7.07;;;;;;;5.39;100.00;100311.13;5030795;28;20024;-76
2023/12/25 00:28:53;;;;;;;10.32;5.97;;;;;;;5.51;100.00;100337.41;5030194;28;20040;-75
2023/12/25 00:31:18;;;;;;;10.45;6.07;;;;;;;5.57;100.00;100331.72;5031305;28;20442;-75
2023/12/25 00:33:45;;;;;;;14.73;7.47;;;;;;;5.60;100.00;100331.91;5031102;28;20033;-76
2023/12/25 00:36:14;;;;;;;14.23;7.97;;;;;;;5.59;100.00;100328.44;5031326;28;20026;-76
2023/12/25 00:38:39;;;;;;;13.35;7.50;;;;;;;5.60;100.00;100322.53;5031159;28;20053;-75
2023/12/25 00:41:05;;;;;;;15.38;8.80;;;;;;;5.46;100.00;100316.66;5031290;28;20084;-75
2023/12/25 00:43:30;;;;;;;14.55;7.30;;;;;;;4.95;100.00;100262.66;5031166;28;20411;-75
2023/12/25 00:45:57;;;;;;;13.63;6.47;;;;;;;5.22;100.00;100322.97;5031139;28;20419;-75
2023/12/25 00:48:23;;;;;;;12.05;7.05;;;;;;;5.35;100.00;100344.22;5030937;28;20029;-75
2023/12/25 00:50:48;;;;;;;12.27;6.93;;;;;;;5.34;100.00;100336.47;5030861;28;20030;-75
2023/12/25 00:53:14;;;;;;;11.05;6.60;;;;;;;5.31;100.00;100326.94;5030708;28;20037;-75
2023/12/25 00:55:39;;;;;;;14.30;7.05;;;;;;;5.16;100.00;100333.75;5030666;28;20033;-75
2023/12/25 00:58:04;;;;;;;11.88;7.43;;;;;;;5.06;100.00;100328.91;5031050;28;20112;-75
2023/12/25 01:03:52;;;;;;;11.32;6.75;;;;;;;4.82;100.00;100329.25;5340700;22;20483;-75
2023/12/25 01:06:17;;;;;;;11.73;6.78;;;;;;;4.91;100.00;100324.69;5011547;28;20034;-75
2023/12/25 01:08:43;;;;;;;14.38;7.13;;;;;;;4.99;100.00;100336.22;5011273;28;20044;-74
2023/12/25 01:11:08;;;;;;;13.52;7.35;;;;;;;4.93;100.00;100328.19;5009049;28;20042;-75
2023/12/25 01:13:34;;;;;;;12.88;6.65;;;;;;;4.79;100.00;100322.28;5011225;28;20026;-75
2023/12/25 01:15:59;;;;;;;11.63;7.15;;;;;;;4.93;100.00;100328.19;5011245;28;20030;-75
2023/12/25 01:18:25;;;;;;;13.25;7.03;;;;;;;4.89;100.00;100333.94;5010968;28;20041;-75
2023/12/25 01:20:50;;;;;;;11.52;6.53;;;;;;;4.79;100.00;100319.72;5011175;28;20516;-74
2023/12/25 01:23:16;;;;;;;11.85;7.03;;;;;;;4.68;100.00;100328.47;5011299;28;20670;-75
2023/12/25 01:25:41;;;;;;;13.65;7.10;;;;;;;4.57;100.00;100327.81;5011167;28;20033;-74
2023/12/25 01:28:07;;;;;;;11.23;6.10;;;;;;;4.53;100.00;100315.66;5011020;28;20033;-74
2023/12/25 01:30:32;;;;;;;11.57;6.68;;;;;;;4.53;100.00;100313.09;5011077;28;20113;-74
2023/12/25 01:32:58;;;;;;;12.57;7.10;;;;;;;4.55;100.00;100316.66;5010887;28;20026;-75
2023/12/25 01:35:23;;;;;;;12.38;7.45;;;;;;;4.59;100.00;100303.25;5008940;28;20025;-74
2023/12/25 01:37:50;;;;;;;12.65;7.50;;;;;;;4.58;100.00;100292.94;5011103;28;20473;-74
2023/12/25 01:40:16;;;;;;;9.77;6.30;;;;;;;4.47;100.00;100289.75;5011028;28;20022;-75
2023/12/25 01:42:44;;;;;;;13.07;6.30;;;;;;;4.23;100.00;100271.31;5010703;28;20488;-74
2023/12/25 01:45:11;;;;;;;13.25;6.97;;;;;;;4.43;100.00;100293.78;5010986;28;20030;-75
2023/12/25 01:47:37;;;;;;;13.85;6.20;;;;;;;4.50;100.00;100287.38;5010708;28;20099;-74
2023/12/25 01:50:05;;;;;;;12.10;7.68;;;;;;;4.50;100.00;100278.03;5010791;28;20034;-74
2023/12/25 01:52:31;;;;;;;12.38;6.40;;;;;;;4.53;100.00;100288.41;5010930;28;20037;-75
2023/12/25 01:54:58;;;;;;;9.23;5.97;;;;;;;4.48;100.00;100278.72;5010879;28;20034;-74
2023/12/25 01:57:25;;;;;;;12.35;6.57;;;;;;;4.44;100.00;100270.00;5010835;28;20026;-74
2023/12/25 01:59:51;;;;;;;12.10;5.60;;;;;;;4.30;100.00;100276.88;5010696;28;20496;-75
2023/12/25 02:02:18;;;;;;;12.45;6.03;;;;;;;4.18;100.00;100263.34;5010574;28;20065;-74
2023/12/25 02:04:44;;;;;;;11.75;6.32;;;;;;;3.85;100.00;100258.88;5010858;28;20068;-74
2023/12/25 02:07:11;;;;;;;13.07;6.55;;;;;;;4.02;100.00;100253.91;5010712;28;20041;-74
2023/12/25 02:09:37;;;;;;;10.80;5.85;;;;;;;4.04;100.00;100255.75;5010676;28;20041;-74
2023/12/25 02:12:03;;;;;;;11.25;6.70;;;;;;;4.04;100.00;100255.75;5010725;28;20022;-74
2023/12/25 02:14:28;;;;;;;14.13;8.60;;;;;;;3.68;100.00;100204.22;5010114;28;20080;-75
2023/12/25 02:16:54;;;;;;;11.52;6.35;;;;;;;4.12;100.00;100260.44;5010485;28;20029;-74
2023/12/25 02:19:29;;;;;;;10.57;6.13;;;;;;;4.16;100.00;100267.47;5010465;28;20109;-74
2023/12/25 02:21:56;;;;;;;10.43;5.68;;;;;;;3.87;100.00;100226.63;5010667;28;20037;-74
2023/12/25 02:24:27;;;;;;;11.05;6.20;;;;;;;4.14;100.00;100269.09;5010057;28;20014;-75
2023/12/25 02:26:53;;;;;;;11.48;6.07;;;;;;;3.95;100.00;100252.66;5008799;28;20038;-74
2023/12/25 02:29:18;;;;;;;14.27;7.60;;;;;;;4.08;100.00;100268.72;5008323;28;20064;-74
2023/12/25 02:31:48;;;;;;;13.32;6.78;;;;;;;4.03;100.00;100259.09;5027379;28;20042;-74
2023/12/25 02:34:13;;;;;;;11.07;6.10;;;;;;;3.92;100.00;100260.13;5027565;28;20057;-74
2023/12/25 02:36:38;;;;;;;12.40;6.47;;;;;;;3.86;100.00;100262.31;5027679;28;20144;-74
2023/12/25 02:39:04;;;;;;;10.80;6.18;;;;;;;3.80;100.00;100259.38;5027832;28;20076;-74
2023/12/25 02:41:29;;;;;;;13.32;6.15;;;;;;;3.18;100.00;100172.31;5027746;28;20419;-74
2023/12/25 02:43:56;;;;;;;12.68;7.32;;;;;;;3.61;100.00;100255.69;5027544;28;20021;-74
2023/12/25 02:46:21;;;;;;;11.75;7.25;;;;;;;3.30;100.00;100210.47;5027677;28;20045;-75
2023/12/25 02:48:47;;;;;;;13.45;7.50;;;;;;;3.60;100.00;100269.28;5030014;28;20431;-75
2023/12/25 02:51:12;;;;;;;13.20;6.95;;;;;;;3.64;100.00;100268.66;5031200;28;20076;-74
2023/12/25 02:53:37;;;;;;;13.93;7.43;;;;;;;3.69;100.00;100271.50;5031047;28;20444;-74
2023/12/25 02:56:03;;;;;;;11.75;7.65;;;;;;;3.66;100.00;100259.41;5031038;28;20030;-75
2023/12/25 02:58:29;;;;;;;14.45;7.22;;;;;;;3.77;100.00;100277.09;5031001;28;20444;-74
2023/12/25 03:00:54;;;;;;;13.00;7.38;;;;;;;3.49;100.00;100226.88;5030996;28;20115;-75
2023/12/25 03:03:20;;;;;;;11.60;6.95;;;;;;;3.64;100.00;100271.22;5017578;28;20137;-74
2023/12/25 03:05:45;;;;;;;15.95;6.70;;;;;;;3.76;100.00;100298.28;5013512;28;20052;-75
2023/12/25 03:08:11;;;;;;;11.38;6.30;;;;;;;3.73;100.00;100271.78;5005972;28;20031;-75
2023/12/25 03:10:36;;;;;;;13.73;6.75;;;;;;;3.33;100.00;100215.72;4994412;28;20038;-74
2023/12/25 03:13:02;;;;;;;11.05;6.43;;;;;;;3.70;100.00;100298.78;4993459;28;20169;-75
2023/12/25 03:15:27;;;;;;;12.02;7.25;;;;;;;3.62;100.00;100288.09;4993840;28;20520;-75
2023/12/25 03:17:53;;;;;;;10.45;6.35;;;;;;;3.63;100.00;100296.66;4993662;28;20030;-74
2023/12/25 03:20:18;;;;;;;10.23;5.60;;;;;;;3.69;100.00;100277.50;4993874;28;20405;-75
2023/12/25 03:22:44;;;;;;;11.65;6.75;;;;;;;3.78;100.00;100279.72;4993501;28;20034;-75
2023/12/25 03:25:10;;;;;;;10.65;6.32;;;;;;;3.34;100.00;100225.16;5007382;28;20085;-75
2023/12/25 03:27:36;;;;;;;10.25;6.43;;;;;;;3.49;100.00;100273.72;4993082;28;20030;-75
2023/12/25 03:30:02;;;;;;;13.95;6.43;;;;;;;3.11;100.00;100213.50;4993397;28;20473;-75
2023/12/25 03:32:27;;;;;;;11.98;6.93;;;;;;;3.04;100.00;100207.16;4993242;28;20445;-75
2023/12/25 03:34:53;;;;;;;12.10;6.85;;;;;;;3.28;100.00;100280.91;4993199;28;20062;-75
2023/12/25 03:37:18;;;;;;;13.15;8.18;;;;;;;3.07;100.00;100276.19;4993158;28;20033;-74
2023/12/25 03:39:44;;;;;;;13.52;7.63;;;;;;;2.77;100.00;100259.81;5007099;28;20089;-74
2023/12/25 03:42:09;;;;;;;15.82;9.80;;;;;;;2.31;100.00;100193.13;4992857;28;20282;-74
2023/12/25 03:44:35;;;;;;;15.70;9.25;;;;;;;2.74;100.00;100270.72;4993217;28;20125;-74
2023/12/25 03:47:02;;;;;;;16.80;9.60;;;;;;;2.77;100.00;100267.47;4993152;28;20061;-74
2023/12/25 03:49:28;;;;;;;16.92;10.52;;;;;;;2.96;100.00;100253.38;4993346;28;20499;-75
2023/12/25 03:51:55;;;;;;;18.23;11.13;;;;;;;3.17;100.00;100257.25;5007139;28;20046;-75
2023/12/25 03:54:22;;;;;;;15.73;9.57;;;;;;;3.34;100.00;100265.97;4993178;28;20034;-76
2023/12/25 03:56:47;;;;;;;18.10;10.55;;;;;;;3.44;100.00;100262.34;4992892;28;20058;-75
2023/12/25 03:59:13;;;;;;;20.35;13.15;;;;;;;3.33;100.00;100271.00;4992917;28;20150;-75
2023/12/25 04:01:38;;;;;;;27.45;17.30;;;;;;;3.14;100.00;100257.09;4992889;28;20090;-74
2023/12/25 04:04:05;;;;;;;20.88;12.80;;;;;;;3.11;100.00;100259.41;4992573;28;20101;-75
2023/12/25 04:06:30;;;;;;;24.60;18.60;;;;;;;3.12;100.00;100261.19;4992588;28;20035;-75
2023/12/25 04:08:56;;;;;;;19.13;12.10;;;;;;;2.86;100.00;100206.00;4992620;28;20036;-74
2023/12/25 04:11:22;;;;;;;17.33;10.32;;;;;;;3.23;100.00;100264.44;4992736;28;20038;-75
2023/12/25 04:13:54;;;;;;;19.25;10.95;;;;;;;3.26;100.00;100263.75;4992754;28;20062;-75
2023/12/25 04:16:24;;;;;;;20.95;10.85;;;;;;;3.23;100.00;100259.31;4992518;28;20401;-76
2023/12/25 04:18:52;;;;;;;21.25;10.85;;;;;;;3.27;100.00;100265.50;4992490;28;20031;-75
2023/12/25 04:21:26;;;;;;;22.13;11.70;;;;;;;3.24;100.00;100284.06;4992288;28;20038;-74
2023/12/25 04:23:52;;;;;;;19.13;10.88;;;;;;;3.29;100.00;100289.44;4992065;28;20109;-75
2023/12/25 04:26:18;;;;;;;22.52;11.85;;;;;;;3.30;100.00;100301.41;4992307;28;20030;-75
2023/12/25 04:28:44;;;;;;;19.50;11.68;;;;;;;3.31;100.00;100293.84;5005696;28;20065;-74
2023/12/25 04:31:10;;;;;;;19.75;12.38;;;;;;;3.31;100.00;100293.84;5011292;28;20133;-75
2023/12/25 04:33:35;;;;;;;22.20;12.15;;;;;;;3.32;100.00;100285.41;5011852;28;20104;-75
2023/12/25 04:36:01;;;;;;;21.30;12.40;;;;;;;3.37;100.00;100298.47;5010606;28;20121;-75
2023/12/25 04:38:26;;;;;;;22.17;12.80;;;;;;;3.32;100.00;100287.97;5010815;28;20456;-75
2023/12/25 04:40:52;;;;;;;19.85;12.68;;;;;;;3.33;100.00;100293.97;5009412;28;20040;-74
2023/12/25 04:43:17;;;;;;;21.48;13.25;;;;;;;3.20;100.00;100279.53;5011473;28;20506;-75
2023/12/25 04:45:43;;;;;;;25.85;15.18;;;;;;;3.28;100.00;100297.88;5010344;28;20038;-74
2023/12/25 04:48:08;;;;;;;22.67;13.55;;;;;;;3.21;100.00;100271.09;5010017;28;20037;-75
2023/12/25 04:50:34;;;;;;;23.65;14.73;;;;;;;3.19;100.00;100277.75;5011195;28;20109;-75
2023/12/25 04:52:59;;;;;;;22.52;12.50;;;;;;;3.10;100.00;100274.63;5010236;28;20030;-75
2023/12/25 04:55:27;;;;;;;21.08;13.23;;;;;;;2.89;100.00;100280.13;5010983;28;20064;-75
2023/12/25 04:57:52;;;;;;;20.73;12.45;;;;;;;2.23;100.00;100185.88;5011455;28;20033;-75
2023/12/25 05:00:18;;;;;;;21.85;13.07;;;;;;;2.69;100.00;100281.38;5010043;28;20393;-75
2023/12/25 05:02:43;;;;;;;24.40;12.20;;;;;;;2.79;100.00;100303.25;5011352;28;20120;-75
2023/12/25 05:05:09;;;;;;;21.17;12.48;;;;;;;2.56;100.00;100256.75;5011229;28;20136;-75
2023/12/25 05:07:34;;;;;;;23.70;13.23;;;;;;;2.69;100.00;100302.66;5010917;28;20516;-75
2023/12/25 05:10:00;;;;;;;23.13;13.20;;;;;;;2.67;100.00;100291.47;5010538;28;20478;-75
2023/12/25 05:12:25;;;;;;;22.40;12.43;;;;;;;2.69;100.00;100300.13;5010629;28;20030;-76
2023/12/25 05:14:51;;;;;;;24.00;14.05;;;;;;;2.56;100.00;100272.06;5010838;28;20025;-75
2023/12/25 05:17:17;;;;;;;21.85;12.35;;;;;;;2.11;100.00;100213.06;5011092;28;20117;-77
2023/12/25 05:19:43;;;;;;;21.35;13.43;;;;;;;2.73;100.00;100314.81;5010952;28;20076;-76
2023/12/25 05:22:09;;;;;;;23.42;13.63;;;;;;;2.74;100.00;100297.84;5010774;28;20385;-76
2023/12/25 05:24:34;;;;;;;20.55;12.57;;;;;;;3.07;100.00;100296.59;5010955;28;20041;-76
2023/12/25 05:27:00;;;;;;;22.80;13.90;;;;;;;3.34;100.00;100309.38;5011064;28;20550;-75
2023/12/25 05:29:26;;;;;;;23.15;12.77;;;;;;;3.13;100.00;100241.66;5011023;28;20085;-75
2023/12/25 05:31:51;;;;;;;23.20;13.98;;;;;;;3.64;100.00;100303.50;5011138;28;20054;-75
2023/12/25 05:34:16;;;;;;;25.08;14.70;;;;;;;3.67;100.00;100307.13;5011074;28;20488;-75
2023/12/25 05:36:42;;;;;;;26.30;14.85;;;;;;;3.66;100.00;100282.38;5010849;28;20034;-75
2023/12/25 05:39:08;;;;;;;26.90;14.07;;;;;;;3.92;100.00;100293.31;5011150;28;20032;-76
2023/12/25 05:41:34;;;;;;;22.33;12.98;;;;;;;3.91;100.00;100296.66;5011107;28;20026;-76
2023/12/25 05:44:00;;;;;;;23.30;12.18;;;;;;;4.03;100.00;100297.41;5011322;28;20025;-76
2023/12/25 05:46:25;;;;;;;22.95;13.43;;;;;;;4.09;100.00;100311.34;5010768;28;20411;-75
2023/12/25 05:48:51;;;;;;;19.13;11.68;;;;;;;3.88;100.00;100322.03;5010867;28;20080;-75
2023/12/25 05:51:16;;;;;;;26.50;13.75;;;;;;;3.72;100.00;100325.31;5011186;28;20057;-75
2023/12/25 05:53:42;;;;;;;21.83;12.85;;;;;;;3.59;100.00;100315.09;5011094;28;20037;-75
2023/12/25 05:56:07;;;;;;;21.42;12.35;;;;;;;3.68;100.00;100321.69;5010945;28;20564;-76
2023/12/25 05:58:33;;;;;;;18.58;11.88;;;;;;;3.80;100.00;100321.56;5010808;28;20061;-76
2023/12/25 06:00:59;;;;;;;18.38;10.90;;;;;;;3.80;100.00;100315.56;5003153;28;20021;-75
2023/12/25 06:03:25;;;;;;;22.23;13.15;;;;;;;3.79;100.00;100321.44;4998143;28;20042;-76
2023/12/25 06:05:50;;;;;;;20.05;12.48;;;;;;;3.76;100.00;100329.81;5004793;28;20053;-75
2023/12/25 06:08:16;;;;;;;18.98;12.02;;;;;;;3.73;100.00;100338.16;5009709;28;20034;-75
2023/12/25 06:10:41;;;;;;;19.95;11.77;;;;;;;3.13;100.00;100260.41;5010289;28;20042;-75
2023/12/25 06:13:07;;;;;;;33.28;20.88;;;;;;;3.52;100.00;100334.28;5010283;28;20088;-75
2023/12/25 06:15:32;;;;;;;31.42;20.20;;;;;;;3.04;100.00;100281.13;5007736;28;20033;-76
2023/12/25 06:17:58;;;;;;;34.88;19.10;;;;;;;3.30;100.00;100332.03;5008613;28;20482;-76
2023/12/25 06:20:25;;;;;;;45.42;24.95;;;;;;;3.27;100.00;100326.75;5009507;28;20022;-76
2023/12/25 06:22:50;;;;;;;44.47;24.67;;;;;;;3.17;100.00;100323.59;5010835;28;20136;-76
2023/12/25 06:25:16;;;;;;;49.15;20.98;;;;;;;2.99;100.00;100315.66;5014077;28;20480;-76
2023/12/25 06:27:42;;;;;;;37.08;20.00;;;;;;;2.96;100.00;100317.97;5013473;28;20080;-75
2023/12/25 06:30:07;;;;;;;25.58;14.10;;;;;;;2.55;100.00;100258.41;5013509;28;20022;-75
2023/12/25 06:32:33;;;;;;;24.73;15.32;;;;;;;2.38;100.00;100221.66;5013926;28;20031;-75
2023/12/25 06:34:58;;;;;;;24.45;13.80;;;;;;;2.85;100.00;100301.09;5013556;28;20026;-76
2023/12/25 06:37:24;;;;;;;21.25;13.95;;;;;;;2.85;100.00;100296.00;5013424;28;20041;-76
2023/12/25 06:39:49;;;;;;;18.05;11.00;;;;;;;2.90;100.00;100294.63;5012039;28;20038;-74
2023/12/25 06:42:15;;;;;;;20.73;11.65;;;;;;;2.93;100.00;100310.16;5010950;28;20510;-75
2023/12/25 06:44:41;;;;;;;18.27;11.68;;;;;;;2.15;100.00;100155.59;5008094;28;20026;-75
2023/12/25 06:47:06;;;;;;;19.65;11.05;;;;;;;2.67;100.00;100243.06;5010218;28;20037;-76
2023/12/25 06:49:32;;;;;;;19.23;11.07;;;;;;;2.62;100.00;100226.59;5013258;28;20455;-76
2023/12/25 06:51:58;;;;;;;19.17;11.05;;;;;;;3.15;100.00;100327.69;5013778;28;20077;-74
2023/12/25 06:54:23;;;;;;;16.15;10.27;;;;;;;2.85;100.00;100248.44;5013527;28;20038;-75
2023/12/25 06:56:49;;;;;;;18.85;11.32;;;;;;;3.18;100.00;100293.88;5013582;28;20041;-74
2023/12/25 06:59:14;;;;;;;21.88;12.23;;;;;;;3.41;100.00;100318.28;5013369;28;20037;-74
2023/12/25 07:01:41;;;;;;;20.27;13.90;;;;;;;3.58;100.00;100318.44;5013440;28;20412;-74
2023/12/25 07:04:08;;;;;;;23.00;12.00;;;;;;;3.13;100.00;100245.09;5013340;28;20439;-74
2023/12/25 07:06:54;;;;;;;23.65;13.50;;;;;;;3.81;100.00;100346.28;5013510;28;20485;-74
2023/12/25 07:09:20;;;;;;;28.02;17.90;;;;;;;3.50;100.00;100278.03;5030502;28;20131;-74
2023/12/25 07:11:45;;;;;;;28.60;16.25;;;;;;;3.97;100.00;100345.56;5031041;28;20515;-74
2023/12/25 07:14:11;;;;;;;40.90;22.52;;;;;;;4.13;100.00;100347.38;5030669;28;20041;-74
2023/12/25 07:16:36;;;;;;;28.45;17.23;;;;;;;4.21;100.00;100328.31;5030670;28;20073;-74
2023/12/25 07:19:02;;;;;;;25.73;14.25;;;;;;;4.36;100.00;100335.09;5030692;28;20577;-74
2023/12/25 07:21:28;;;;;;;20.73;12.32;;;;;;;4.51;100.00;100330.91;5030526;28;20084;-74
2023/12/25 07:23:54;;;;;;;28.13;14.40;;;;;;;4.69;100.00;100331.09;5030634;28;20041;-74
2023/12/25 07:26:19;;;;;;;23.23;13.48;;;;;;;4.75;100.00;100329.69;5030438;28;20545;-74
2023/12/25 07:28:45;;;;;;;21.80;12.38;;;;;;;4.52;100.00;100267.88;5030340;28;20041;-74
2023/12/25 07:31:11;;;;;;;24.40;16.35;;;;;;;5.23;100.00;100355.44;5030139;28;20119;-74
2023/12/25 07:33:37;;;;;;;17.77;10.25;;;;;;;5.41;100.00;100359.06;5030376;28;20478;-74
2023/12/25 07:36:04;;;;;;;18.15;9.55;;;;;;;5.26;100.00;100309.53;5030265;28;20121;-74
2023/12/25 07:38:30;;;;;;;16.85;9.50;;;;;;;5.76;100.00;100362.66;5013622;28;20034;-74
2023/12/25 07:40:57;;;;;;;15.30;9.27;;;;;;;5.95;100.00;100366.22;5016922;28;20056;-75
2023/12/25 07:43:24;;;;;;;18.90;10.07;;;;;;;6.05;100.00;100347.13;5012705;28;20088;-74
2023/12/25 07:45:51;;;;;;;18.15;9.48;;;;;;;5.90;100.00;100296.78;5011628;28;20451;-74
2023/12/25 07:48:16;;;;;;;17.23;9.35;;;;;;;6.56;100.00;100390.81;5012986;28;20125;-74
2023/12/25 07:50:42;;;;;;;16.05;9.48;;;;;;;6.75;100.00;100393.53;5012660;28;20481;-74
2023/12/25 07:53:08;;;;;;;15.75;9.07;;;;;;;6.75;100.00;100369.53;5012547;28;20392;-74
2023/12/25 07:55:36;;;;;;;12.07;7.22;;;;;;;6.63;100.00;100336.47;5012577;28;20030;-74
2023/12/25 07:58:03;;;;;;;13.05;6.70;;;;;;;7.10;100.00;100385.81;5012523;28;20036;-74
2023/12/25 08:00:30;;;;;;;12.73;6.32;;;;;;;7.29;100.00;100388.50;5012272;28;20099;-75
2023/12/25 08:02:55;;;;;;;13.60;6.55;;;;;;;7.15;100.00;100319.31;5012175;28;20037;-74
2023/12/25 08:05:21;;;;;;;14.60;6.85;;;;;;;7.77;100.00;100395.03;5012267;28;20037;-74
2023/12/25 08:07:47;;;;;;;9.88;6.40;;;;;;;7.62;100.00;100333.50;5010993;28;20034;-74
2023/12/25 08:10:13;;;;;;;10.73;5.57;;;;;;;8.05;100.00;100381.75;5012292;28;20025;-75
2023/12/25 08:12:43;;;;;;;16.50;6.53;;;;;;;8.23;100.00;100396.25;5012187;28;20480;-74
2023/12/25 08:15:10;;;;;;;;;;;;;;;8.37;100.00;100410.63;5012439;28;20034;-74
2023/12/25 08:17:35;;;;;;;11.73;6.35;;;;;;;8.40;100.00;100399.59;5012252;28;20013;-74
2023/12/25 08:20:01;;;;;;;11.85;6.15;;;;;;;8.49;100.00;100389.75;5011975;28;20105;-74
2023/12/25 08:22:26;;;;;;;15.32;6.60;;;;;;;8.70;100.00;100383.78;5012130;28;20040;-74
2023/12/25 08:24:52;;;;;;;19.15;7.30;;;;;;;8.80;100.00;100380.78;5012069;28;20041;-74
2023/12/25 08:27:17;;;;;;;12.95;5.88;;;;;;;8.85;100.00;100383.56;5011967;28;20540;-74
2023/12/25 08:29:43;;;;;;;11.95;5.43;;;;;;;8.94;98.09;100385.63;5011702;28;20029;-74
2023/12/25 08:32:08;;;;;;;11.60;5.53;;;;;;;9.03;97.91;100396.31;5012378;28;20034;-75
2023/12/25 08:34:37;;;;;;;11.73;5.97;;;;;;;8.76;97.10;100334.25;5011840;28;20125;-74
2023/12/25 08:37:03;;;;;;;9.60;4.60;;;;;;;9.28;95.08;100398.19;5012094;28;20037;-75
2023/12/25 08:39:28;;;;;;;8.52;4.15;;;;;;;8.92;94.48;100322.91;5011737;28;20412;-74
2023/12/25 08:41:54;;;;;;;8.70;4.43;;;;;;;9.43;93.84;100399.66;5011746;28;20072;-75
2023/12/25 08:44:19;;;;;;;10.20;4.38;;;;;;;9.47;91.83;100370.59;5011330;28;20026;-74
2023/12/25 08:46:46;;;;;;;9.32;3.17;;;;;;;9.66;90.43;100385.13;5011487;28;20115;-74
2023/12/25 08:49:12;;;;;;;7.65;4.32;;;;;;;9.71;88.20;100374.16;5011501;28;20112;-74
2023/12/25 08:51:38;;;;;;;11.85;4.47;;;;;;;9.91;90.26;100388.66;5010260;28;20056;-74
2023/12/25 08:54:03;;;;;;;8.45;3.83;;;;;;;9.65;89.86;100321.50;5011563;28;20064;-74
2023/12/25 08:56:29;;;;;;;10.23;5.13;;;;;;;9.88;88.26;100341.28;5011554;28;20066;-74
2023/12/25 08:58:54;;;;;;;8.02;4.38;;;;;;;10.25;88.24;100383.03;5011303;28;20036;-74
2023/12/25 09:01:24;;;;;;;8.18;4.63;;;;;;;10.41;89.12;100394.81;5011408;28;20033;-74
2023/12/25 09:03:49;;;;;;;10.38;5.03;;;;;;;10.51;88.83;100381.44;5011449;28;20046;-74
2023/12/25 09:06:16;;;;;;;9.95;5.35;;;;;;;10.65;88.50;100386.22;5011392;28;20044;-74
2023/12/25 09:08:41;;;;;;;12.00;5.28;;;;;;;10.68;89.35;100365.69;4992775;28;20065;-74
2023/12/25 09:11:09;;;;;;;8.35;4.80;;;;;;;10.88;89.13;100373.19;5011316;28;20096;-75
2023/12/25 09:13:35;;;;;;;11.80;4.53;;;;;;;10.88;90.92;100347.38;5011073;28;20038;-74
2023/12/25 09:16:01;;;;;;;10.15;4.75;;;;;;;11.05;93.94;100366.91;5011417;28;20037;-74
2023/12/25 09:18:27;;;;;;;9.60;4.85;;;;;;;11.17;93.09;100366.44;5011166;28;20030;-74
2023/12/25 09:20:52;;;;;;;9.52;5.28;;;;;;;11.27;91.86;100373.66;5011004;28;20022;-74
2023/12/25 09:23:18;;;;;;;10.52;6.05;;;;;;;11.33;93.67;100347.16;5011124;28;20121;-74
2023/12/25 09:25:44;;;;;;;9.70;5.43;;;;;;;11.54;92.84;100356.38;5011101;28;20440;-74
2023/12/25 09:28:11;;;;;;;8.98;5.45;;;;;;;11.46;90.74;100326.03;5025336;28;20050;-74
2023/12/25 09:30:37;;;;;;;10.57;4.68;;;;;;;11.63;89.90;100348.94;5011260;28;20388;-74
2023/12/25 09:33:03;;;;;;;8.88;5.32;;;;;;;11.71;88.94;100326.75;5011120;28;20108;-74
2023/12/25 09:35:29;;;;;;;10.65;6.00;;;;;;;11.89;88.50;100336.78;5009807;28;20112;-74
2023/12/25 09:37:55;;;;;;;10.05;5.20;;;;;;;12.03;90.15;100326.00;5011052;28;20092;-74
2023/12/25 09:40:21;;;;;;;11.95;6.32;;;;;;;11.81;89.11;100266.72;5010679;28;20046;-74
2023/12/25 09:42:49;;;;;;;27.83;13.98;;;;;;;12.36;87.07;100318.31;5010794;28;20026;-74
2023/12/25 09:45:17;;;;;;;18.80;10.40;;;;;;;12.57;85.70;100315.41;5005695;28;20101;-75
2023/12/25 09:47:43;;;;;;;16.83;8.75;;;;;;;12.68;84.21;100291.50;5009623;28;20033;-74
2023/12/25 09:50:10;;;;;;;19.15;8.98;;;;;;;12.72;82.21;100257.03;5008943;28;20030;-74
2023/12/25 09:52:36;;;;;;;14.68;7.53;;;;;;;13.09;81.95;100302.84;5007911;28;20030;-74
2023/12/25 09:55:01;;;;;;;10.50;5.28;;;;;;;12.83;83.99;100232.28;5009868;28;20038;-74
2023/12/25 09:57:29;;;;;;;8.98;5.47;;;;;;;13.23;79.56;100281.56;5012342;28;20030;-74
2023/12/25 09:59:57;;;;;;;11.55;5.70;;;;;;;13.43;78.93;100293.31;5011991;28;20018;-74
2023/12/25 10:02:25;;;;;;;9.75;5.13;;;;;;;13.45;78.86;100287.31;5009724;28;20514;-74
2023/12/25 10:04:50;;;;;;;9.60;5.45;;;;;;;13.54;80.04;100279.72;5012210;28;20053;-74
2023/12/25 10:07:20;;;;;;;9.50;5.53;;;;;;;13.29;80.69;100218.63;5011983;28;20033;-74
2023/12/25 10:09:47;;;;;;;;;;;;;;;13.83;80.20;100282.03;5011649;28;20038;-74
2023/12/25 10:12:12;;;;;;;12.05;6.00;;;;;;;13.84;82.12;100270.81;5013137;28;20330;-75
2023/12/25 10:14:38;;;;;;;9.23;5.20;;;;;;;13.89;78.76;100258.81;5013328;28;20091;-74
2023/12/25 10:17:04;;;;;;;9.82;4.57;;;;;;;13.27;80.30;100149.47;5010913;28;20029;-74
2023/12/25 10:19:30;;;;;;;11.05;5.57;;;;;;;14.13;77.97;100250.66;5012086;28;20080;-74
2023/12/25 10:21:55;;;;;;;9.43;4.85;;;;;;;14.11;79.35;100228.09;5012599;28;20057;-75
2023/12/25 10:24:27;;;;;;;12.88;6.90;;;;;;;14.35;78.61;100251.03;5012537;28;20030;-74
2023/12/25 10:26:57;;;;;;;14.85;8.85;;;;;;;14.50;76.57;100243.50;5013452;28;20021;-75
2023/12/25 10:29:33;;;;;;;10.77;5.53;;;;;;;14.62;75.69;100242.84;5007451;28;20176;-74
2023/12/25 10:32:15;;;;;;;13.48;5.13;;;;;;;14.69;75.71;100242.13;5006431;28;20031;-75
2023/12/25 10:34:40;;;;;;;10.27;5.20;;;;;;;14.87;73.02;100228.53;5003980;28;20117;-74
2023/12/25 10:37:06;;;;;;;16.50;9.60;;;;;;;14.92;74.41;100228.63;5010988;28;20798;-74
2023/12/25 10:39:33;;;;;;;23.10;12.93;;;;;;;14.98;73.54;100214.84;5011169;28;20037;-74
2023/12/25 10:41:59;;;;;;;21.17;12.15;;;;;;;15.15;73.12;100218.56;5012784;28;20394;-75
2023/12/25 10:44:25;;;;;;;10.60;5.45;;;;;;;15.34;71.65;100218.81;5012027;28;20496;-73
2023/12/25 10:46:52;;;;;;;23.25;16.40;;;;;;;15.42;69.91;100221.53;5010359;28;20496;-75
2023/12/25 10:49:20;;;;;;;12.52;7.85;;;;;;;15.04;70.00;100147.31;5012332;28;20552;-74
2023/12/25 10:51:49;;;;;;;15.20;6.35;;;;;;;15.51;70.19;100221.63;5011822;28;20092;-74
2023/12/25 10:54:15;;;;;;;8.40;4.80;;;;;;;15.50;70.02;100196.47;5012175;28;20484;-74
2023/12/25 10:56:43;;;;;;;13.27;6.25;;;;;;;15.71;69.67;100214.06;5009645;28;20042;-74
2023/12/25 10:59:10;;;;;;;11.52;4.40;;;;;;;15.78;70.47;100202.88;5006043;28;20136;-73
2023/12/25 11:01:37;;;;;;;8.80;3.95;;;;;;;15.73;71.20;100190.69;5008155;28;20087;-74
2023/12/25 11:04:03;;;;;;;8.07;3.70;;;;;;;15.59;70.54;100149.75;5007930;28;20050;-74
2023/12/25 11:06:28;;;;;;;12.18;8.20;;;;;;;16.02;69.14;100204.03;5010870;28;20431;-73
2023/12/25 11:08:54;;;;;;;11.93;7.60;;;;;;;16.13;68.26;100197.19;5008748;28;20083;-73
2023/12/25 11:11:21;;;;;;;9.18;4.80;;;;;;;15.70;67.52;100103.00;5006392;28;20480;-74
2023/12/25 11:13:47;;;;;;;9.75;5.30;;;;;;;16.28;68.09;100188.66;5005279;28;20061;-74
2023/12/25 11:16:13;;;;;;;9.40;4.63;;;;;;;16.47;64.38;100204.44;5007628;28;20057;-74